Nelsonia, Virginia
Current Conditions -  °F | °C
As of 12:54 PM on Friday 21 Nov 2014 (Local Time) from KWAL Reporting Station
Few Clouds Few Clouds  
Wind Chill: 28°   Ceiling: Unl
Heat Index: 37°   Visibility: 10mi
Dew Point:   Wind: 14mph
Humidity: 29%   Direction: 340°NNW
Pressure: 30.43"   Gusts: 25mph
Location:  37.82°N, 75.59°W
Report Text: KWAL 211754Z 34012G22KT 10SM FEW060 03/M14 A3043 RMK AO2 PK WND 36028/1719 SLP299 T00281139 10033 21022 51010
Loading
Personal Weather Stations






























Interactive Weather Map New forecast layout! Learn more

10-Day Weather Forecast

Advertisements
Track Severe Weather on mobile